createdAt,value
2022-07-29T00:00:11.860Z,3.41
2022-07-29T00:01:18.890Z,3.37
2022-07-29T00:02:11.869Z,3.03
2022-07-29T00:03:11.914Z,3.24
2022-07-29T00:04:12.016Z,2.87
2022-07-29T00:06:16.324Z,3.18
2022-07-29T00:07:11.906Z,3.27
2022-07-29T00:08:12.723Z,3.18
2022-07-29T00:09:11.879Z,3.37
2022-07-29T00:10:11.895Z,3.63
2022-07-29T00:11:11.877Z,2.91
2022-07-29T00:12:11.889Z,2.63
2022-07-29T00:13:11.902Z,3.12
2022-07-29T00:14:12.096Z,3.07
2022-07-29T00:15:11.879Z,3.00
2022-07-29T00:16:11.917Z,3.64
2022-07-29T00:17:11.908Z,3.48
2022-07-29T00:18:11.906Z,3.51
2022-07-29T00:19:11.930Z,3.04
2022-07-29T00:20:11.908Z,4.00
2022-07-29T00:21:11.887Z,3.48
2022-07-29T00:22:11.897Z,3.29
2022-07-29T00:23:13.546Z,3.35
2022-07-29T00:24:12.028Z,3.33
2022-07-29T00:25:11.938Z,2.66
2022-07-29T00:26:11.921Z,2.94
2022-07-29T00:27:11.944Z,3.05
2022-07-29T00:28:11.925Z,2.96
2022-07-29T00:29:33.686Z,3.23
2022-07-29T00:30:11.947Z,3.04
2022-07-29T00:31:12.012Z,2.82
2022-07-29T00:32:11.943Z,3.21
2022-07-29T00:33:11.945Z,2.70
2022-07-29T00:34:12.104Z,3.27
2022-07-29T00:35:11.941Z,2.75
2022-07-29T00:36:11.958Z,2.98
2022-07-29T00:37:11.958Z,2.68
2022-07-29T00:38:11.945Z,3.68
2022-07-29T00:39:11.946Z,3.48
2022-07-29T00:40:11.946Z,3.51
2022-07-29T00:41:11.973Z,3.00
2022-07-29T00:42:12.018Z,2.84
2022-07-29T00:43:16.510Z,2.77
2022-07-29T00:45:11.999Z,3.05
2022-07-29T00:46:12.030Z,3.24
2022-07-29T00:49:12.105Z,2.93
2022-07-29T00:50:11.979Z,2.61
2022-07-29T00:51:11.990Z,2.73
2022-07-29T00:52:11.988Z,2.94
2022-07-29T00:53:11.994Z,2.36
2022-07-29T00:54:12.154Z,2.82
2022-07-29T00:55:11.988Z,2.63
2022-07-29T00:56:12.039Z,2.69
2022-07-29T00:57:12.022Z,2.48
2022-07-29T00:59:12.050Z,2.49
2022-07-29T01:00:12.056Z,2.53
2022-07-29T01:01:12.092Z,2.49
2022-07-29T01:02:12.149Z,2.87
2022-07-29T01:03:12.019Z,2.96
2022-07-29T01:04:12.141Z,2.83
2022-07-29T01:05:12.031Z,2.46
2022-07-29T01:06:12.020Z,2.67
2022-07-29T01:07:12.043Z,2.52
2022-07-29T01:08:12.027Z,2.81
2022-07-29T01:09:12.042Z,2.71
2022-07-29T01:10:12.045Z,2.72
2022-07-29T01:11:12.070Z,2.93
2022-07-29T01:12:12.063Z,2.68
2022-07-29T01:13:12.041Z,2.86
2022-07-29T01:14:12.170Z,3.56
2022-07-29T01:15:12.047Z,3.32
2022-07-29T01:16:12.143Z,3.09
2022-07-29T01:17:12.058Z,2.70
2022-07-29T01:18:12.049Z,3.01
2022-07-29T01:19:12.088Z,2.88
2022-07-29T01:20:16.727Z,2.86
2022-07-29T01:21:12.070Z,2.98
2022-07-29T01:22:12.056Z,3.05
2022-07-29T01:23:12.080Z,2.79
2022-07-29T01:24:12.234Z,3.11
2022-07-29T01:25:12.068Z,3.03
2022-07-29T01:26:12.086Z,3.09
2022-07-29T01:27:12.105Z,2.85
2022-07-29T01:28:12.092Z,3.13
2022-07-29T01:29:12.129Z,2.70
2022-07-29T01:30:13.034Z,3.07
2022-07-29T01:31:23.764Z,2.68
2022-07-29T01:32:20.287Z,3.03
2022-07-29T01:33:12.098Z,2.66
2022-07-29T01:34:12.248Z,2.35
2022-07-29T01:35:12.131Z,2.39
2022-07-29T01:36:12.107Z,2.77
2022-07-29T01:37:12.129Z,2.86
2022-07-29T01:38:12.100Z,2.36
2022-07-29T01:39:12.109Z,2.75
2022-07-29T01:40:12.135Z,2.11
2022-07-29T01:41:12.115Z,2.68
2022-07-29T01:42:12.128Z,2.47
2022-07-29T01:43:12.121Z,2.39
2022-07-29T01:44:12.343Z,2.77
2022-07-29T01:45:12.148Z,2.38
2022-07-29T01:46:12.169Z,2.34
2022-07-29T01:47:12.139Z,2.32
2022-07-29T01:48:12.129Z,2.63
2022-07-29T01:52:12.150Z,2.51
2022-07-29T01:53:12.149Z,1.77
2022-07-29T01:55:12.166Z,2.32
2022-07-29T01:56:12.153Z,2.14
2022-07-29T01:57:16.971Z,2.23
2022-07-29T01:58:12.162Z,2.20
2022-07-29T01:59:12.208Z,2.29
2022-07-29T02:00:12.171Z,2.19
2022-07-29T02:01:12.189Z,2.25
2022-07-29T02:02:12.216Z,2.30
2022-07-29T02:03:12.180Z,2.19
2022-07-29T02:04:12.335Z,1.97
2022-07-29T02:05:12.241Z,2.13
2022-07-29T02:06:12.189Z,2.14
2022-07-29T02:07:12.185Z,2.10
2022-07-29T02:08:12.195Z,1.87
2022-07-29T02:09:12.201Z,2.08
2022-07-29T02:10:12.221Z,2.21
2022-07-29T02:11:12.212Z,2.15
2022-07-29T02:12:12.201Z,2.50
2022-07-29T02:13:12.200Z,2.57
2022-07-29T02:14:12.258Z,2.28
2022-07-29T02:15:12.216Z,2.19
2022-07-29T02:16:12.291Z,2.50
2022-07-29T02:17:12.206Z,2.28
2022-07-29T02:18:12.254Z,2.49
2022-07-29T02:19:12.210Z,2.10
2022-07-29T02:22:12.222Z,1.95
2022-07-29T02:23:12.245Z,2.43
2022-07-29T02:24:12.354Z,2.06
2022-07-29T02:25:14.177Z,2.31
2022-07-29T02:26:12.224Z,2.15
2022-07-29T02:27:12.236Z,2.18
2022-07-29T02:28:12.235Z,2.43
2022-07-29T02:29:12.233Z,2.09
2022-07-29T02:31:12.341Z,1.92
2022-07-29T02:32:12.272Z,1.78
2022-07-29T02:33:12.284Z,1.97
2022-07-29T02:34:17.658Z,1.77
2022-07-29T02:35:12.254Z,2.31
2022-07-29T02:36:12.270Z,1.94
2022-07-29T02:37:12.260Z,1.97
2022-07-29T02:39:12.276Z,1.96
2022-07-29T02:40:12.270Z,1.87
2022-07-29T02:41:12.286Z,2.06
2022-07-29T02:42:12.294Z,2.17
2022-07-29T02:43:12.270Z,2.21
2022-07-29T02:44:12.510Z,2.24
2022-07-29T02:45:12.298Z,2.13
2022-07-29T02:46:14.815Z,1.79
2022-07-29T02:47:12.307Z,1.94
2022-07-29T02:48:12.289Z,2.01
2022-07-29T02:49:12.366Z,2.44
2022-07-29T02:50:12.283Z,2.38
2022-07-29T02:51:15.129Z,1.76
2022-07-29T02:52:12.325Z,1.84
2022-07-29T02:55:12.325Z,2.36
2022-07-29T02:57:12.327Z,2.81
2022-07-29T02:58:12.315Z,2.71
2022-07-29T02:59:12.317Z,2.52
2022-07-29T03:01:12.407Z,2.38
2022-07-29T03:02:12.447Z,2.38
2022-07-29T03:03:12.324Z,2.25
2022-07-29T03:04:12.564Z,2.13
2022-07-29T03:05:12.398Z,2.04
2022-07-29T03:06:37.559Z,2.11
2022-07-29T03:08:12.391Z,1.91
2022-07-29T03:09:13.509Z,2.48
2022-07-29T03:10:13.453Z,2.37
2022-07-29T03:11:17.331Z,2.51
2022-07-29T03:12:12.338Z,2.30
2022-07-29T03:13:12.347Z,2.34
2022-07-29T03:14:12.565Z,2.06
2022-07-29T03:15:12.358Z,2.17
2022-07-29T03:16:12.398Z,2.23
2022-07-29T03:17:12.376Z,2.21
2022-07-29T03:18:12.378Z,2.36
2022-07-29T03:19:12.384Z,2.49
2022-07-29T03:20:12.375Z,2.13
2022-07-29T03:21:12.387Z,2.34
2022-07-29T03:22:12.380Z,2.27
2022-07-29T03:23:12.381Z,2.18
2022-07-29T03:24:12.493Z,2.25
2022-07-29T03:25:12.398Z,2.04
2022-07-29T03:26:12.383Z,2.21
2022-07-29T03:27:12.376Z,1.89
2022-07-29T03:28:12.390Z,2.16
2022-07-29T03:30:12.409Z,2.10
2022-07-29T03:31:12.443Z,1.88
2022-07-29T03:32:12.406Z,2.33
2022-07-29T03:33:13.433Z,1.87
2022-07-29T03:35:12.403Z,2.44
2022-07-29T03:36:12.404Z,2.02
2022-07-29T03:37:12.419Z,2.19
2022-07-29T03:38:12.398Z,2.31
2022-07-29T03:39:12.420Z,2.29
2022-07-29T03:41:12.439Z,2.55
2022-07-29T03:42:12.438Z,2.00
2022-07-29T03:43:12.427Z,2.02
2022-07-29T03:44:12.772Z,1.93
2022-07-29T03:45:12.698Z,2.26
2022-07-29T03:46:12.504Z,2.57
2022-07-29T03:47:12.439Z,2.17
2022-07-29T03:48:12.447Z,2.48
2022-07-29T03:49:12.583Z,2.28
2022-07-29T03:50:12.462Z,2.11
2022-07-29T03:51:12.455Z,1.92
2022-07-29T03:52:12.453Z,2.71
2022-07-29T03:53:12.463Z,3.17
2022-07-29T03:54:12.461Z,2.96
2022-07-29T03:55:12.500Z,2.16
2022-07-29T03:56:12.445Z,2.46
2022-07-29T03:57:12.458Z,2.54
2022-07-29T03:58:12.467Z,2.12
2022-07-29T03:59:12.468Z,2.28
2022-07-29T04:00:12.509Z,2.47
2022-07-29T04:01:12.528Z,2.49
2022-07-29T04:02:12.580Z,2.15
2022-07-29T04:03:12.521Z,2.18
2022-07-29T04:04:12.783Z,2.32
2022-07-29T04:05:12.480Z,2.59
2022-07-29T04:06:12.504Z,2.56
2022-07-29T04:07:12.486Z,2.22
2022-07-29T04:08:12.493Z,2.53
2022-07-29T04:09:12.495Z,2.39
2022-07-29T04:11:12.513Z,2.53
2022-07-29T04:12:12.513Z,2.62
2022-07-29T04:13:12.552Z,2.66
2022-07-29T04:15:12.532Z,2.18
2022-07-29T04:16:12.544Z,2.75
2022-07-29T04:17:12.516Z,2.68
2022-07-29T04:18:12.523Z,2.63
2022-07-29T04:19:12.534Z,2.53
2022-07-29T04:20:12.528Z,2.63
2022-07-29T04:21:12.521Z,2.58
2022-07-29T04:22:12.947Z,2.01
2022-07-29T04:23:12.548Z,2.46
2022-07-29T04:24:12.885Z,2.31
2022-07-29T04:25:12.532Z,2.49
2022-07-29T04:26:12.561Z,2.41
2022-07-29T04:27:12.544Z,2.80
2022-07-29T04:28:12.571Z,2.99
2022-07-29T04:29:12.556Z,2.14
2022-07-29T04:30:12.551Z,3.16
2022-07-29T04:32:12.554Z,3.00
2022-07-29T04:35:12.580Z,2.62
2022-07-29T04:36:28.852Z,2.23
2022-07-29T04:37:12.568Z,2.64
2022-07-29T04:38:15.812Z,2.88
2022-07-29T04:39:12.593Z,2.72
2022-07-29T04:40:12.571Z,2.54
2022-07-29T04:41:12.578Z,2.52
2022-07-29T04:42:12.582Z,2.30
2022-07-29T04:43:12.616Z,2.63
2022-07-29T04:44:12.774Z,2.80
2022-07-29T04:45:12.589Z,3.18
2022-07-29T04:46:12.707Z,2.25
2022-07-29T04:47:12.577Z,2.43
2022-07-29T04:48:12.606Z,2.93
2022-07-29T04:49:12.700Z,2.68
2022-07-29T04:50:12.611Z,3.00
2022-07-29T04:51:12.624Z,2.49
2022-07-29T04:53:12.623Z,2.83
2022-07-29T04:54:12.882Z,2.56
2022-07-29T04:55:12.610Z,2.72
2022-07-29T04:56:12.671Z,2.92
2022-07-29T04:57:12.606Z,3.36
2022-07-29T04:58:12.620Z,2.35
2022-07-29T04:59:13.201Z,2.70
2022-07-29T05:00:12.623Z,2.40
2022-07-29T05:01:12.679Z,3.04
2022-07-29T05:03:12.695Z,2.82
2022-07-29T05:04:12.986Z,2.62
2022-07-29T05:05:12.630Z,2.80
2022-07-29T05:06:12.655Z,3.12
2022-07-29T05:07:12.647Z,3.10
2022-07-29T05:08:12.640Z,3.41
2022-07-29T05:09:12.712Z,3.30
2022-07-29T05:10:12.654Z,3.36
2022-07-29T05:11:14.924Z,3.26
2022-07-29T05:12:12.647Z,2.97
2022-07-29T05:13:12.660Z,3.00
2022-07-29T05:14:13.032Z,2.62
2022-07-29T05:15:12.662Z,3.06
2022-07-29T05:16:12.869Z,3.21
2022-07-29T05:17:12.690Z,2.92
2022-07-29T05:18:12.699Z,3.01
2022-07-29T05:19:14.614Z,3.41
2022-07-29T05:20:12.704Z,2.99
2022-07-29T05:21:12.665Z,2.71
2022-07-29T05:22:12.750Z,2.90
2022-07-29T05:23:12.680Z,3.21
2022-07-29T05:24:13.001Z,2.42
2022-07-29T05:25:12.697Z,3.06
2022-07-29T05:26:12.695Z,3.03
2022-07-29T05:27:12.697Z,2.79
2022-07-29T05:28:12.715Z,3.04
2022-07-29T05:29:43.770Z,2.58
2022-07-29T05:31:12.852Z,2.95
2022-07-29T05:32:12.716Z,2.94
2022-07-29T05:33:35.771Z,2.70
2022-07-29T05:34:12.796Z,2.87
2022-07-29T05:36:13.362Z,3.71
2022-07-29T05:38:12.726Z,2.92
2022-07-29T05:39:12.765Z,2.78
2022-07-29T05:40:12.778Z,3.38
2022-07-29T05:41:12.731Z,3.96
2022-07-29T05:42:12.786Z,3.05
2022-07-29T05:43:12.775Z,2.99
2022-07-29T05:44:12.965Z,2.68
2022-07-29T05:45:12.749Z,3.19
2022-07-29T05:46:12.831Z,3.22
2022-07-29T05:47:12.744Z,2.81
2022-07-29T05:48:12.749Z,3.01
2022-07-29T05:49:12.825Z,3.31
2022-07-29T05:50:12.747Z,3.60
2022-07-29T05:51:12.758Z,3.37
2022-07-29T05:52:12.755Z,3.13
2022-07-29T05:53:19.898Z,3.31
2022-07-29T05:54:13.010Z,3.33
2022-07-29T05:55:12.819Z,2.97
2022-07-29T05:56:12.756Z,3.24
2022-07-29T05:57:12.814Z,2.91
2022-07-29T05:58:12.802Z,3.20
2022-07-29T05:59:15.540Z,4.59
2022-07-29T06:01:12.866Z,3.26
2022-07-29T06:02:12.807Z,3.86
2022-07-29T06:03:12.815Z,3.91
2022-07-29T06:04:13.081Z,3.09
2022-07-29T06:05:16.255Z,2.94
2022-07-29T06:06:12.798Z,3.26
2022-07-29T06:07:12.803Z,2.77
2022-07-29T06:08:12.813Z,3.12
2022-07-29T06:09:13.822Z,3.81
2022-07-29T06:10:12.820Z,3.11
2022-07-29T06:11:12.843Z,3.02
2022-07-29T06:12:12.885Z,2.60
2022-07-29T06:13:13.547Z,3.16
2022-07-29T06:14:13.092Z,2.74
2022-07-29T06:15:12.839Z,3.00
2022-07-29T06:16:12.849Z,3.21
2022-07-29T06:17:12.834Z,2.93
2022-07-29T06:18:12.861Z,3.85
2022-07-29T06:19:12.839Z,4.19
2022-07-29T06:20:12.841Z,3.95
2022-07-29T06:21:12.873Z,2.94
2022-07-29T06:22:12.867Z,2.91
2022-07-29T06:23:12.867Z,3.49
2022-07-29T06:24:13.137Z,2.95
2022-07-29T06:25:12.890Z,3.45
2022-07-29T06:26:12.866Z,3.12
2022-07-29T06:27:12.892Z,4.13
2022-07-29T06:28:12.873Z,3.41
2022-07-29T06:29:12.882Z,3.43
2022-07-29T06:30:12.901Z,3.13
2022-07-29T06:31:13.006Z,2.84
2022-07-29T06:32:12.867Z,3.29
2022-07-29T06:33:12.879Z,3.70
2022-07-29T06:35:37.996Z,3.22
2022-07-29T06:36:12.873Z,3.05
2022-07-29T06:37:15.532Z,3.26
2022-07-29T06:38:30.488Z,2.76
2022-07-29T06:39:13.101Z,3.17
2022-07-29T06:40:12.889Z,2.98
2022-07-29T06:41:12.892Z,2.65
2022-07-29T06:42:12.896Z,3.13
2022-07-29T06:43:12.946Z,2.76
2022-07-29T06:44:13.214Z,3.13
2022-07-29T06:45:12.902Z,2.57
2022-07-29T06:46:12.971Z,2.98
2022-07-29T06:47:12.890Z,2.67
2022-07-29T06:48:12.936Z,2.96
2022-07-29T06:49:12.973Z,2.50
2022-07-29T06:50:13.768Z,2.95
2022-07-29T06:51:12.906Z,2.59
2022-07-29T06:52:12.898Z,3.19
2022-07-29T06:53:12.927Z,2.70
2022-07-29T06:54:12.954Z,2.62
2022-07-29T06:55:12.914Z,2.79
2022-07-29T06:56:12.940Z,2.95
2022-07-29T06:57:12.933Z,2.91
2022-07-29T06:58:12.917Z,2.82
2022-07-29T06:59:12.932Z,3.11
2022-07-29T07:00:12.955Z,3.49
2022-07-29T07:01:12.957Z,2.96
2022-07-29T07:02:12.981Z,3.57
2022-07-29T07:03:12.942Z,4.01
2022-07-29T07:04:13.084Z,3.16
2022-07-29T07:05:13.035Z,4.00
2022-07-29T07:06:15.101Z,4.16
2022-07-29T07:07:12.978Z,3.90
2022-07-29T07:08:12.966Z,3.29
2022-07-29T07:09:12.973Z,3.88
2022-07-29T07:10:13.065Z,3.82
2022-07-29T07:11:12.980Z,2.87
2022-07-29T07:12:12.978Z,3.69
2022-07-29T07:13:12.971Z,3.66
2022-07-29T07:14:12.985Z,3.20
2022-07-29T07:15:12.967Z,3.92
2022-07-29T07:16:13.042Z,3.77
2022-07-29T07:17:12.978Z,3.46
2022-07-29T07:18:12.979Z,4.13
2022-07-29T07:19:13.003Z,4.55
2022-07-29T07:20:13.262Z,3.87
2022-07-29T07:21:12.992Z,3.44
2022-07-29T07:22:13.005Z,3.41
2022-07-29T07:23:13.007Z,4.39
2022-07-29T07:24:13.227Z,3.91
2022-07-29T07:25:12.997Z,4.41
2022-07-29T07:26:13.013Z,4.10
2022-07-29T07:27:13.981Z,3.80
2022-07-29T07:28:13.015Z,4.96
2022-07-29T07:29:13.044Z,4.16
2022-07-29T07:30:13.016Z,4.60
2022-07-29T07:32:13.058Z,4.33
2022-07-29T07:33:13.031Z,4.83
2022-07-29T07:34:13.456Z,4.72
2022-07-29T07:35:13.030Z,4.45
2022-07-29T07:36:13.043Z,4.04
2022-07-29T07:37:13.022Z,4.31
2022-07-29T07:38:13.051Z,4.48
2022-07-29T07:39:13.028Z,4.28
2022-07-29T07:40:13.041Z,3.88
2022-07-29T07:41:13.044Z,3.75
2022-07-29T07:42:13.070Z,4.07
2022-07-29T07:43:13.050Z,4.06
2022-07-29T07:44:16.122Z,4.02
2022-07-29T07:45:16.132Z,4.42
2022-07-29T07:46:13.168Z,4.62
2022-07-29T07:47:13.050Z,4.37
2022-07-29T07:48:13.061Z,4.37
2022-07-29T07:49:13.135Z,4.17
2022-07-29T07:50:18.394Z,4.13
2022-07-29T07:51:13.075Z,4.67
2022-07-29T07:52:13.065Z,4.82
2022-07-29T07:53:13.075Z,4.40
2022-07-29T07:54:13.438Z,4.85
2022-07-29T07:55:13.085Z,4.79
2022-07-29T07:56:13.157Z,4.73
2022-07-29T07:57:13.075Z,4.98
2022-07-29T07:58:13.097Z,4.00
2022-07-29T07:59:13.105Z,4.03
2022-07-29T08:00:13.095Z,4.67
2022-07-29T08:01:13.207Z,5.26
2022-07-29T08:02:13.196Z,5.27
2022-07-29T08:03:17.058Z,4.86
2022-07-29T08:04:14.622Z,5.16
2022-07-29T08:06:13.106Z,4.99
2022-07-29T08:08:13.110Z,4.87
2022-07-29T08:09:28.254Z,4.34
2022-07-29T08:10:13.139Z,4.56
2022-07-29T08:11:13.117Z,4.41
2022-07-29T08:12:13.104Z,4.48
2022-07-29T08:14:13.801Z,4.48
2022-07-29T08:15:13.135Z,4.82
2022-07-29T08:16:13.217Z,4.01
2022-07-29T08:17:13.180Z,4.06
2022-07-29T08:18:13.148Z,4.82
2022-07-29T08:19:13.156Z,4.75
2022-07-29T08:20:13.171Z,4.55
2022-07-29T08:21:15.117Z,4.74
2022-07-29T08:22:13.149Z,4.66
2022-07-29T08:23:13.150Z,4.76
2022-07-29T08:24:13.153Z,3.95
2022-07-29T08:25:13.151Z,4.00
2022-07-29T08:26:13.158Z,4.68
2022-07-29T08:27:40.611Z,4.35
2022-07-29T08:28:13.153Z,4.29
2022-07-29T08:30:13.203Z,4.32
2022-07-29T08:31:13.179Z,3.90
2022-07-29T08:32:13.307Z,4.43
2022-07-29T08:34:13.191Z,4.90
2022-07-29T08:35:13.189Z,4.63
2022-07-29T08:36:13.173Z,5.13
2022-07-29T08:37:13.187Z,4.47
2022-07-29T08:38:13.191Z,4.64
2022-07-29T08:39:13.204Z,4.86
2022-07-29T08:40:13.257Z,4.44
2022-07-29T08:41:14.413Z,5.10
2022-07-29T08:42:13.197Z,4.53
2022-07-29T08:43:13.202Z,5.11
2022-07-29T08:44:13.220Z,4.71
2022-07-29T08:45:13.209Z,4.87
2022-07-29T08:46:13.267Z,5.22
2022-07-29T08:47:13.217Z,5.17
2022-07-29T08:48:13.209Z,4.26
2022-07-29T08:49:13.280Z,4.41
2022-07-29T08:50:13.248Z,4.98
2022-07-29T08:51:13.218Z,4.95
2022-07-29T08:52:13.238Z,5.02
2022-07-29T08:53:13.229Z,4.48
2022-07-29T08:54:13.246Z,4.60
2022-07-29T08:55:13.232Z,4.72
2022-07-29T08:56:13.225Z,5.09
2022-07-29T08:57:13.240Z,4.95
2022-07-29T08:58:13.245Z,4.86
2022-07-29T08:59:13.227Z,5.01
2022-07-29T09:00:13.269Z,6.50
2022-07-29T09:01:13.910Z,7.51
2022-07-29T09:02:13.265Z,5.64
2022-07-29T09:03:13.293Z,6.61
2022-07-29T09:04:13.245Z,6.72
2022-07-29T09:05:13.284Z,5.17
2022-07-29T09:06:13.277Z,5.19
2022-07-29T09:07:13.269Z,4.55
2022-07-29T09:08:13.253Z,5.19
2022-07-29T09:09:13.255Z,3.89
2022-07-29T09:10:13.313Z,3.97
2022-07-29T09:11:13.277Z,4.48
2022-07-29T09:12:13.281Z,4.01
2022-07-29T09:13:13.260Z,3.61
2022-07-29T09:14:13.281Z,4.22
2022-07-29T09:15:13.285Z,4.15
2022-07-29T09:16:22.404Z,4.84
2022-07-29T09:17:13.326Z,4.02
2022-07-29T09:18:20.350Z,4.18
2022-07-29T09:19:13.290Z,4.23
2022-07-29T09:20:13.314Z,4.61
2022-07-29T09:21:13.299Z,4.70
2022-07-29T09:22:13.298Z,3.86
2022-07-29T09:24:13.306Z,5.13
2022-07-29T09:25:13.315Z,4.84
2022-07-29T09:26:13.319Z,5.58
2022-07-29T09:27:13.317Z,4.37
2022-07-29T09:28:13.333Z,5.44
2022-07-29T09:30:13.388Z,6.47
2022-07-29T09:31:13.367Z,5.69
2022-07-29T09:32:13.326Z,5.56
2022-07-29T09:33:13.337Z,6.38
2022-07-29T09:34:13.331Z,6.22
2022-07-29T09:35:13.343Z,6.08
2022-07-29T09:36:13.326Z,7.11
2022-07-29T09:37:13.354Z,5.46
2022-07-29T09:38:13.361Z,6.41
2022-07-29T09:39:13.335Z,6.84
2022-07-29T09:40:13.370Z,8.66
2022-07-29T09:41:13.346Z,11.24
2022-07-29T09:42:13.361Z,11.89
2022-07-29T09:43:13.384Z,9.83
2022-07-29T09:44:13.350Z,9.13
2022-07-29T09:45:13.359Z,10.62
2022-07-29T09:46:13.374Z,8.44
2022-07-29T09:47:13.426Z,6.39
2022-07-29T09:48:13.360Z,6.12
2022-07-29T09:49:13.478Z,7.06
2022-07-29T09:50:13.404Z,7.10
2022-07-29T09:51:17.028Z,6.74
2022-07-29T09:52:13.382Z,6.98
2022-07-29T09:53:13.393Z,6.43
2022-07-29T09:54:13.380Z,5.38
2022-07-29T09:55:18.186Z,5.87
2022-07-29T09:56:13.407Z,5.95
2022-07-29T09:57:13.427Z,5.86
2022-07-29T09:59:13.390Z,5.44
2022-07-29T10:00:13.428Z,5.78
2022-07-29T10:01:13.493Z,6.12
2022-07-29T10:02:13.406Z,4.78
2022-07-29T10:03:13.466Z,5.46
2022-07-29T10:04:13.411Z,4.50
2022-07-29T10:05:13.413Z,4.82
2022-07-29T10:06:13.418Z,5.16
2022-07-29T10:07:13.418Z,4.72
2022-07-29T10:08:13.512Z,4.72
2022-07-29T10:09:13.432Z,5.10
2022-07-29T10:10:13.425Z,4.58
2022-07-29T10:11:13.452Z,4.53
2022-07-29T10:12:13.437Z,4.87
2022-07-29T10:13:15.730Z,4.45
2022-07-29T10:14:13.437Z,5.07
2022-07-29T10:15:13.452Z,5.12
2022-07-29T10:16:13.995Z,5.05
2022-07-29T10:17:13.439Z,5.24
2022-07-29T10:18:13.461Z,5.21
2022-07-29T10:19:13.453Z,4.32
2022-07-29T10:20:16.367Z,4.73
2022-07-29T10:21:35.154Z,4.45
2022-07-29T10:22:14.996Z,5.64
2022-07-29T10:23:13.455Z,4.61
2022-07-29T10:24:14.876Z,5.18
2022-07-29T10:25:13.467Z,4.64
2022-07-29T10:26:13.477Z,5.02
2022-07-29T10:27:13.485Z,4.67
2022-07-29T10:28:16.425Z,4.82
2022-07-29T10:29:13.472Z,4.48
2022-07-29T10:30:13.489Z,4.29
2022-07-29T10:31:13.521Z,4.09
2022-07-29T10:32:15.051Z,4.25
2022-07-29T10:33:13.496Z,5.14
2022-07-29T10:34:13.497Z,4.85
2022-07-29T10:35:13.515Z,4.58
2022-07-29T10:36:14.309Z,5.17
2022-07-29T10:37:13.515Z,4.81
2022-07-29T10:38:16.524Z,4.64
2022-07-29T10:39:15.449Z,4.48
2022-07-29T10:40:13.520Z,4.60
2022-07-29T10:41:13.583Z,4.28
2022-07-29T10:42:13.522Z,4.59
2022-07-29T10:43:13.525Z,4.54
2022-07-29T10:44:17.464Z,4.19
2022-07-29T10:45:13.532Z,4.18
2022-07-29T10:46:13.568Z,4.51
2022-07-29T10:47:13.533Z,4.52
2022-07-29T10:48:13.535Z,4.25
2022-07-29T10:49:15.207Z,4.47
2022-07-29T10:50:17.293Z,4.17
2022-07-29T10:51:13.562Z,4.37
2022-07-29T10:52:13.537Z,4.51
2022-07-29T10:53:14.231Z,4.01
2022-07-29T10:54:13.543Z,3.91
2022-07-29T10:55:13.538Z,4.61
2022-07-29T10:56:17.395Z,3.92
2022-07-29T10:57:13.542Z,3.95
2022-07-29T10:58:13.554Z,4.62
2022-07-29T10:59:13.564Z,4.39
2022-07-29T11:00:13.617Z,4.06
2022-07-29T11:01:13.585Z,4.58
2022-07-29T11:02:36.512Z,3.77
2022-07-29T11:03:13.587Z,3.48
2022-07-29T11:04:13.573Z,4.11
2022-07-29T11:05:13.583Z,4.40
2022-07-29T11:06:13.616Z,4.01
2022-07-29T11:07:13.587Z,4.09
2022-07-29T11:08:16.499Z,5.22
2022-07-29T11:09:15.293Z,5.03
2022-07-29T11:10:13.856Z,6.16
2022-07-29T11:11:15.804Z,5.67
2022-07-29T11:12:13.593Z,4.94
2022-07-29T11:13:13.609Z,3.98
2022-07-29T11:14:13.592Z,4.95
2022-07-29T11:15:13.586Z,4.44
2022-07-29T11:16:13.619Z,4.47
2022-07-29T11:17:13.963Z,4.21
2022-07-29T11:18:15.097Z,4.02
2022-07-29T11:19:13.905Z,3.89
2022-07-29T11:20:13.619Z,4.25
2022-07-29T11:21:13.616Z,4.33
2022-07-29T11:22:16.670Z,4.72
2022-07-29T11:23:13.629Z,4.56
2022-07-29T11:24:13.617Z,4.26
2022-07-29T11:25:13.644Z,4.09
2022-07-29T11:26:13.656Z,4.52
2022-07-29T11:27:13.671Z,4.54
2022-07-29T11:28:13.639Z,4.63
2022-07-29T11:29:13.674Z,4.65
2022-07-29T11:30:14.562Z,4.66
2022-07-29T11:31:13.650Z,4.02
2022-07-29T11:32:18.080Z,4.56
2022-07-29T11:33:13.645Z,4.76
2022-07-29T11:34:13.649Z,4.51
2022-07-29T11:35:17.221Z,3.69
2022-07-29T11:36:16.911Z,4.24
2022-07-29T11:37:13.683Z,4.62
2022-07-29T11:38:13.660Z,4.65
2022-07-29T11:39:13.653Z,5.17
2022-07-29T11:40:13.676Z,5.22
2022-07-29T11:41:13.650Z,5.26
2022-07-29T11:43:13.685Z,4.38
2022-07-29T11:44:13.685Z,4.23
2022-07-29T11:46:15.528Z,4.76
2022-07-29T11:47:13.691Z,4.64
2022-07-29T11:49:13.712Z,5.42
2022-07-29T11:50:13.760Z,5.20
2022-07-29T11:51:13.703Z,4.53
2022-07-29T11:52:13.772Z,5.14
2022-07-29T11:54:13.689Z,4.70
2022-07-29T11:55:13.697Z,4.81
2022-07-29T11:56:16.423Z,5.17
2022-07-29T11:57:13.715Z,4.14
2022-07-29T11:58:13.729Z,5.27
2022-07-29T12:00:14.577Z,4.97
2022-07-29T12:01:13.742Z,4.91
2022-07-29T12:03:13.769Z,4.26
2022-07-29T12:04:13.756Z,3.93
2022-07-29T12:05:14.483Z,5.19
2022-07-29T12:06:13.801Z,5.16
2022-07-29T12:07:15.558Z,4.92
2022-07-29T12:08:14.609Z,5.08
2022-07-29T12:09:14.712Z,4.40
2022-07-29T12:10:19.505Z,4.82
2022-07-29T12:11:13.746Z,5.08
2022-07-29T12:12:13.802Z,5.08
2022-07-29T12:13:13.757Z,5.74
2022-07-29T12:14:13.753Z,6.59
2022-07-29T12:15:13.773Z,5.42
2022-07-29T12:16:14.776Z,6.50
2022-07-29T12:17:13.777Z,6.42
2022-07-29T12:18:13.767Z,5.60
2022-07-29T12:19:13.789Z,5.17
2022-07-29T12:21:13.758Z,4.43
2022-07-29T12:23:16.138Z,5.21
2022-07-29T12:24:13.777Z,5.23
2022-07-29T12:25:32.869Z,4.78
2022-07-29T12:26:25.346Z,5.03
2022-07-29T12:28:14.125Z,4.85
2022-07-29T12:29:15.622Z,5.08
2022-07-29T12:30:13.793Z,4.77
2022-07-29T12:31:13.890Z,4.89
2022-07-29T12:32:14.568Z,5.11
2022-07-29T12:33:13.809Z,4.58
2022-07-29T12:35:14.019Z,6.45
2022-07-29T12:36:17.686Z,6.60
2022-07-29T12:37:13.811Z,5.45
2022-07-29T12:38:13.821Z,7.50
2022-07-29T12:39:13.860Z,5.88
2022-07-29T12:40:13.814Z,5.52
2022-07-29T12:41:13.828Z,5.22
2022-07-29T12:42:15.057Z,5.18
2022-07-29T12:43:13.837Z,5.41
2022-07-29T12:44:13.835Z,5.90
2022-07-29T12:45:13.860Z,4.96
2022-07-29T12:46:13.974Z,4.94
2022-07-29T12:47:13.853Z,5.54
2022-07-29T12:48:13.844Z,5.35
2022-07-29T12:49:13.922Z,5.33
2022-07-29T12:50:13.851Z,5.28
2022-07-29T12:51:13.858Z,5.38
2022-07-29T12:52:13.845Z,5.26
2022-07-29T12:53:13.860Z,5.32
2022-07-29T12:54:13.862Z,5.32
2022-07-29T12:55:13.896Z,5.40
2022-07-29T12:56:33.110Z,6.00
2022-07-29T12:57:20.064Z,5.82
2022-07-29T12:58:13.881Z,6.28
2022-07-29T12:59:14.366Z,6.55
2022-07-29T13:00:15.987Z,5.82
2022-07-29T13:01:17.061Z,6.17
2022-07-29T13:02:13.946Z,5.59
2022-07-29T13:03:13.873Z,5.49
2022-07-29T13:04:13.875Z,5.72
2022-07-29T13:05:13.890Z,6.90
2022-07-29T13:06:13.903Z,6.64
2022-07-29T13:07:14.614Z,6.00
2022-07-29T13:08:21.917Z,6.45
2022-07-29T13:09:13.900Z,5.63
2022-07-29T13:11:13.898Z,6.04
2022-07-29T13:12:13.909Z,5.49
2022-07-29T13:13:13.915Z,5.74
2022-07-29T13:14:13.903Z,5.89
2022-07-29T13:15:13.907Z,5.63
2022-07-29T13:16:14.035Z,5.85
2022-07-29T13:17:13.928Z,6.00
2022-07-29T13:18:17.698Z,6.11
2022-07-29T13:19:13.932Z,5.55
2022-07-29T13:20:13.941Z,6.09
2022-07-29T13:21:13.942Z,5.75
2022-07-29T13:22:13.950Z,5.45
2022-07-29T13:23:13.950Z,5.34
2022-07-29T13:24:16.868Z,5.76
2022-07-29T13:25:13.930Z,5.89
2022-07-29T13:26:13.933Z,5.56
2022-07-29T13:27:13.944Z,5.94
2022-07-29T13:28:13.956Z,5.98
2022-07-29T13:29:13.959Z,6.47
2022-07-29T13:30:13.994Z,6.18
2022-07-29T13:31:14.119Z,7.24
2022-07-29T13:32:13.962Z,7.50
2022-07-29T13:33:13.965Z,7.21
2022-07-29T13:34:13.972Z,8.68
2022-07-29T13:35:13.964Z,8.53
2022-07-29T13:36:13.966Z,7.99
2022-07-29T13:37:16.207Z,8.42
2022-07-29T13:38:13.973Z,8.41
2022-07-29T13:39:13.965Z,8.81
2022-07-29T13:40:13.982Z,8.44
2022-07-29T13:41:14.000Z,8.69
2022-07-29T13:42:13.992Z,8.41
2022-07-29T13:43:13.990Z,8.95
2022-07-29T13:44:14.002Z,8.69
2022-07-29T13:45:14.024Z,9.25
2022-07-29T13:46:14.052Z,8.58
2022-07-29T13:47:13.997Z,8.28
2022-07-29T13:48:14.009Z,8.34
2022-07-29T13:49:14.056Z,8.18
2022-07-29T13:50:14.016Z,8.52
2022-07-29T13:51:14.050Z,9.45
2022-07-29T13:52:14.013Z,7.98
2022-07-29T13:53:17.748Z,8.04
2022-07-29T13:54:14.041Z,7.76
2022-07-29T13:55:14.016Z,8.02
2022-07-29T13:56:14.024Z,8.97
2022-07-29T13:57:14.041Z,8.71
2022-07-29T13:58:14.017Z,8.45
2022-07-29T13:59:14.035Z,8.86
2022-07-29T14:00:14.040Z,8.64
2022-07-29T14:02:14.067Z,8.23
2022-07-29T14:03:14.052Z,7.34
2022-07-29T14:04:14.156Z,8.40
2022-07-29T14:05:14.084Z,7.90
2022-07-29T14:06:14.039Z,8.80
2022-07-29T14:07:16.243Z,8.55
2022-07-29T14:08:14.087Z,7.90
2022-07-29T14:09:14.071Z,7.92
2022-07-29T14:10:17.251Z,9.37
2022-07-29T14:11:14.072Z,8.16
2022-07-29T14:12:14.090Z,7.62